PWSweather.com
Personal Weather Stations
Station Observations
DEKREUPEL
Wsv De Kreupel, AndijkNL 1619 JV

Wsv De KreupelAndijkNL 1619 JV

Lat: 52.7417364, Lon: 5.1809356

Elevation: 33

Station Type: Rainwise MKiii LR

Latest ConditionsUpdated 3:34:00 PM GMT+01:01 Friday, Jul 20, 2018
Currently Today's Max Today's Min Today's Average
Temperature 70.7°F21.5°C 71.5°F21.9°C 63.2°F17.3°C 66.5°F19.2°C
Dew Point 100.0°F37.8°C 100.9°F38.3°C 91.4°F33.0°C 95.2°F35.1°C
Winds 19.2 mph N30.9 kmh N 19.7 mph -31.7 kmh - - 10.8 mph 17.4 kmh
Wind Gusts 22.4 mph36.0 kmh 23.6 mph38.0 kmh - -
Humidity - - - -
Pressure 30.02 in1016.6 mb 30.15 in1021.0 mb 30.02 in1016.6 mb -
Hour Temp Dew Point Humidity Winds Wind Gusts Pressure Precip Precip Rate Daily Precip Total
03:34 PM 70.7°F21.5°C 100.0°F37.8°C - 19.2 mph N30.9 kmh N 22.4 mph36.0 kmh 30.02 in1016.6 mb 0.00 in0.0 mm 0.00 in0.0 mm 0.00 in0.0 mm
03:29 PM 70.7°F21.5°C 99.9°F37.7°C - 19.4 mph N31.2 kmh N 22.4 mph36.0 kmh 30.03 in1016.9 mb 0.00 in0.0 mm 0.00 in0.0 mm 0.00 in0.0 mm
03:24 PM 70.9°F21.6°C 100.2°F37.9°C - 19.7 mph N31.7 kmh N 22.2 mph35.7 kmh 30.02 in1016.6 mb 0.00 in0.0 mm 0.00 in0.0 mm 0.00 in0.0 mm
03:19 PM 70.8°F21.6°C 100.0°F37.8°C - 18.0 mph N29.0 kmh N 20.9 mph33.6 kmh 30.03 in1016.9 mb 0.00 in0.0 mm 0.00 in0.0 mm 0.00 in0.0 mm
03:14 PM 70.7°F21.5°C 100.0°F37.8°C - 18.5 mph N29.8 kmh N 20.6 mph33.2 kmh 30.03 in1016.9 mb 0.00 in0.0 mm 0.00 in0.0 mm 0.00 in0.0 mm
03:09 PM 70.8°F21.6°C 100.0°F37.8°C - 18.4 mph N29.6 kmh N 21.1 mph34.0 kmh 30.03 in1016.9 mb 0.00 in0.0 mm 0.00 in0.0 mm 0.00 in0.0 mm
03:04 PM 70.9°F21.6°C 100.2°F37.9°C - 18.7 mph N30.1 kmh N 21.0 mph33.8 kmh 30.03 in1016.9 mb 0.00 in0.0 mm 0.00 in0.0 mm 0.00 in0.0 mm
02:59 PM 70.9°F21.6°C 100.1°F37.8°C - 18.2 mph N29.3 kmh N 20.5 mph33.0 kmh 30.03 in1016.9 mb 0.00 in0.0 mm 0.00 in0.0 mm 0.00 in0.0 mm
02:54 PM 71.0°F21.7°C 100.3°F37.9°C - 18.8 mph N30.3 kmh N 21.7 mph34.9 kmh 30.03 in1016.9 mb 0.00 in0.0 mm 0.00 in0.0 mm 0.00 in0.0 mm
02:49 PM 71.0°F21.7°C 100.3°F37.9°C - 18.5 mph NNE29.8 kmh NNE 21.0 mph33.8 kmh 30.03 in1016.9 mb 0.00 in0.0 mm 0.00 in0.0 mm 0.00 in0.0 mm
02:44 PM 70.9°F21.6°C 100.2°F37.9°C - 18.8 mph N30.3 kmh N 21.3 mph34.3 kmh 30.03 in1016.9 mb 0.00 in0.0 mm 0.00 in0.0 mm 0.00 in0.0 mm
02:39 PM 70.7°F21.5°C 100.0°F37.8°C - 18.6 mph N29.9 kmh N 20.6 mph33.2 kmh 30.03 in1016.9 mb 0.00 in0.0 mm 0.00 in0.0 mm 0.00 in0.0 mm
02:34 PM 70.5°F21.4°C 99.8°F37.7°C - 17.3 mph N27.8 kmh N 19.8 mph31.9 kmh 30.04 in1017.3 mb 0.00 in0.0 mm 0.00 in0.0 mm 0.00 in0.0 mm
02:29 PM 70.4°F21.3°C 99.5°F37.5°C - 17.3 mph N27.8 kmh N 20.0 mph32.2 kmh 30.04 in1017.3 mb 0.00 in0.0 mm 0.00 in0.0 mm 0.00 in0.0 mm
02:24 PM 70.6°F21.4°C 99.9°F37.7°C - 17.2 mph N27.7 kmh N 19.0 mph30.6 kmh 30.04 in1017.3 mb 0.00 in0.0 mm 0.00 in0.0 mm 0.00 in0.0 mm
02:19 PM 70.7°F21.5°C 100.0°F37.8°C - 17.6 mph N28.3 kmh N 20.7 mph33.3 kmh 30.04 in1017.3 mb 0.00 in0.0 mm 0.00 in0.0 mm 0.00 in0.0 mm
02:14 PM 70.7°F21.5°C 99.9°F37.7°C - 15.4 mph N24.8 kmh N 17.6 mph28.3 kmh 30.04 in1017.3 mb 0.00 in0.0 mm 0.00 in0.0 mm 0.00 in0.0 mm
02:09 PM 70.9°F21.6°C 100.1°F37.8°C - 15.0 mph N24.1 kmh N 16.8 mph27.0 kmh 30.04 in1017.3 mb 0.00 in0.0 mm 0.00 in0.0 mm 0.00 in0.0 mm
02:04 PM 71.2°F21.8°C 100.4°F38.0°C - 16.2 mph N26.1 kmh N 18.0 mph29.0 kmh 30.04 in1017.3 mb 0.00 in0.0 mm 0.00 in0.0 mm 0.00 in0.0 mm
01:59 PM 71.3°F21.8°C 100.7°F38.2°C - 14.7 mph N23.7 kmh N 16.5 mph26.6 kmh 30.04 in1017.3 mb 0.00 in0.0 mm 0.00 in0.0 mm 0.00 in0.0 mm
01:54 PM 71.5°F21.9°C 100.9°F38.3°C - 15.9 mph N25.6 kmh N 17.6 mph28.3 kmh 30.04 in1017.3 mb 0.00 in0.0 mm 0.00 in0.0 mm 0.00 in0.0 mm
01:49 PM 71.4°F21.9°C 100.8°F38.2°C - 14.8 mph N23.8 kmh N 16.6 mph26.7 kmh 30.04 in1017.3 mb 0.00 in0.0 mm 0.00 in0.0 mm 0.00 in0.0 mm
01:44 PM 71.2°F21.8°C 100.4°F38.0°C - 14.2 mph N22.9 kmh N 16.1 mph25.9 kmh 30.04 in1017.3 mb 0.00 in0.0 mm 0.00 in0.0 mm 0.00 in0.0 mm
01:39 PM 71.4°F21.9°C 100.7°F38.2°C - 14.6 mph N23.5 kmh N 16.3 mph26.2 kmh 30.04 in1017.3 mb 0.00 in0.0 mm 0.00 in0.0 mm 0.00 in0.0 mm
01:34 PM 71.4°F21.9°C 100.7°F38.2°C - 13.7 mph N22.0 kmh N 15.7 mph25.3 kmh 30.05 in1017.6 mb 0.00 in0.0 mm 0.00 in0.0 mm 0.00 in0.0 mm
01:29 PM 71.0°F21.7°C 100.3°F37.9°C - 12.9 mph N20.8 kmh N 14.7 mph23.7 kmh 30.05 in1017.6 mb 0.00 in0.0 mm 0.00 in0.0 mm 0.00 in0.0 mm
01:24 PM 71.2°F21.8°C 100.4°F38.0°C - 13.2 mph N21.2 kmh N 14.0 mph22.5 kmh 30.05 in1017.6 mb 0.00 in0.0 mm 0.00 in0.0 mm 0.00 in0.0 mm
01:19 PM 71.2°F21.8°C 100.6°F38.1°C - 13.0 mph N20.9 kmh N 14.9 mph24.0 kmh 30.05 in1017.6 mb 0.00 in0.0 mm 0.00 in0.0 mm 0.00 in0.0 mm
01:14 PM 71.2°F21.8°C 100.6°F38.1°C - 12.6 mph NNE20.3 kmh NNE 13.9 mph22.4 kmh 30.05 in1017.6 mb 0.00 in0.0 mm 0.00 in0.0 mm 0.00 in0.0 mm
01:09 PM 71.2°F21.8°C 100.6°F38.1°C - 12.3 mph N19.8 kmh N 13.6 mph21.9 kmh 30.05 in1017.6 mb 0.00 in0.0 mm 0.00 in0.0 mm 0.00 in0.0 mm
01:04 PM 70.9°F21.6°C 100.2°F37.9°C - 11.1 mph N17.9 kmh N 12.7 mph20.4 kmh 30.05 in1017.6 mb 0.00 in0.0 mm 0.00 in0.0 mm 0.00 in0.0 mm
12:59 PM 70.7°F21.5°C 100.0°F37.8°C - 11.5 mph N18.5 kmh N 13.5 mph21.7 kmh 30.05 in1017.6 mb 0.00 in0.0 mm 0.00 in0.0 mm 0.00 in0.0 mm
12:54 PM 70.5°F21.4°C 99.8°F37.7°C - 10.9 mph NNE17.5 kmh NNE 13.2 mph21.2 kmh 30.05 in1017.6 mb 0.00 in0.0 mm 0.00 in0.0 mm 0.00 in0.0 mm
12:49 PM 70.5°F21.4°C 99.8°F37.7°C - 11.1 mph NNE17.9 kmh NNE 12.6 mph20.3 kmh 30.06 in1017.9 mb 0.00 in0.0 mm 0.00 in0.0 mm 0.00 in0.0 mm
12:44 PM 70.5°F21.4°C 99.7°F37.6°C - 10.5 mph NE16.9 kmh NE 12.2 mph19.6 kmh 30.06 in1017.9 mb 0.00 in0.0 mm 0.00 in0.0 mm 0.00 in0.0 mm
12:39 PM 70.4°F21.3°C 99.7°F37.6°C - 10.0 mph NNE16.1 kmh NNE 12.1 mph19.5 kmh 30.06 in1017.9 mb 0.00 in0.0 mm 0.00 in0.0 mm 0.00 in0.0 mm
12:34 PM 70.2°F21.2°C 99.4°F37.4°C - 11.1 mph NNE17.9 kmh NNE 13.1 mph21.1 kmh 30.06 in1017.9 mb 0.00 in0.0 mm 0.00 in0.0 mm 0.00 in0.0 mm
12:29 PM 70.0°F21.1°C 99.2°F37.3°C - 10.8 mph NNE17.4 kmh NNE 13.3 mph21.4 kmh 30.06 in1017.9 mb 0.00 in0.0 mm 0.00 in0.0 mm 0.00 in0.0 mm
12:24 PM 69.9°F21.1°C 99.1°F37.3°C - 10.9 mph NE17.5 kmh NE 13.8 mph22.2 kmh 30.06 in1017.9 mb 0.00 in0.0 mm 0.00 in0.0 mm 0.00 in0.0 mm
12:19 PM 69.9°F21.1°C 99.0°F37.2°C - 10.7 mph NNE17.2 kmh NNE 13.4 mph21.6 kmh 30.06 in1017.9 mb 0.00 in0.0 mm 0.00 in0.0 mm 0.00 in0.0 mm
12:14 PM 69.9°F21.1°C 99.0°F37.2°C - 10.6 mph NNE17.1 kmh NNE 13.0 mph20.9 kmh 30.06 in1017.9 mb 0.00 in0.0 mm 0.00 in0.0 mm 0.00 in0.0 mm
12:09 PM 69.7°F20.9°C 98.9°F37.2°C - 10.5 mph NNE16.9 kmh NNE 12.7 mph20.4 kmh 30.06 in1017.9 mb 0.00 in0.0 mm 0.00 in0.0 mm 0.00 in0.0 mm
12:04 PM 69.5°F20.8°C 98.5°F36.9°C - 10.3 mph NNE16.6 kmh NNE 12.8 mph20.6 kmh 30.06 in1017.9 mb 0.00 in0.0 mm 0.00 in0.0 mm 0.00 in0.0 mm
11:59 AM 69.2°F20.7°C 98.3°F36.8°C - 11.4 mph NE18.3 kmh NE 14.1 mph22.7 kmh 30.06 in1017.9 mb 0.00 in0.0 mm 0.00 in0.0 mm 0.00 in0.0 mm
11:54 AM 69.0°F20.6°C 98.1°F36.7°C - 10.7 mph NE17.2 kmh NE 13.0 mph20.9 kmh 30.07 in1018.3 mb 0.00 in0.0 mm 0.00 in0.0 mm 0.00 in0.0 mm
11:49 AM 69.0°F20.6°C 98.1°F36.7°C - 11.1 mph NNE17.9 kmh NNE 13.5 mph21.7 kmh 30.06 in1017.9 mb 0.00 in0.0 mm 0.00 in0.0 mm 0.00 in0.0 mm
11:44 AM 69.0°F20.6°C 98.0°F36.7°C - 11.0 mph NE17.7 kmh NE 13.5 mph21.7 kmh 30.06 in1017.9 mb 0.00 in0.0 mm 0.00 in0.0 mm 0.00 in0.0 mm
11:39 AM 68.9°F20.5°C 98.0°F36.7°C - 11.5 mph NE18.5 kmh NE 13.9 mph22.4 kmh 30.06 in1017.9 mb 0.00 in0.0 mm 0.00 in0.0 mm 0.00 in0.0 mm
11:34 AM 68.7°F20.4°C 97.7°F36.5°C - 12.0 mph NNE19.3 kmh NNE 14.0 mph22.5 kmh 30.07 in1018.3 mb 0.00 in0.0 mm 0.00 in0.0 mm 0.00 in0.0 mm
11:29 AM 68.6°F20.3°C 97.5°F36.4°C - 12.1 mph NE19.5 kmh NE 14.5 mph23.3 kmh 30.07 in1018.3 mb 0.00 in0.0 mm 0.00 in0.0 mm 0.00 in0.0 mm
11:24 AM 68.5°F20.3°C 97.4°F36.3°C - 11.1 mph NNE17.9 kmh NNE 14.0 mph22.5 kmh 30.06 in1017.9 mb 0.00 in0.0 mm 0.00 in0.0 mm 0.00 in0.0 mm
11:19 AM 68.2°F20.1°C 97.2°F36.2°C - 11.8 mph NE19.0 kmh NE 14.1 mph22.7 kmh 30.07 in1018.3 mb 0.00 in0.0 mm 0.00 in0.0 mm 0.00 in0.0 mm
11:14 AM 68.3°F20.2°C 97.3°F36.3°C - 10.9 mph NE17.5 kmh NE 13.4 mph21.6 kmh 30.07 in1018.3 mb 0.00 in0.0 mm 0.00 in0.0 mm 0.00 in0.0 mm
11:09 AM 68.5°F20.3°C 97.4°F36.3°C - 12.5 mph NE20.1 kmh NE 15.1 mph24.3 kmh 30.07 in1018.3 mb 0.00 in0.0 mm 0.00 in0.0 mm 0.00 in0.0 mm
11:04 AM 68.5°F20.3°C 97.5°F36.4°C - 11.5 mph NNE18.5 kmh NNE 13.9 mph22.4 kmh 30.07 in1018.3 mb 0.00 in0.0 mm 0.00 in0.0 mm 0.00 in0.0 mm
10:59 AM 68.2°F20.1°C 97.2°F36.2°C - 11.9 mph NE19.2 kmh NE 14.7 mph23.7 kmh 30.07 in1018.3 mb 0.00 in0.0 mm 0.00 in0.0 mm 0.00 in0.0 mm
10:54 AM 68.2°F20.1°C 97.2°F36.2°C - 11.8 mph NE19.0 kmh NE 14.6 mph23.5 kmh 30.06 in1017.9 mb 0.00 in0.0 mm 0.00 in0.0 mm 0.00 in0.0 mm
10:49 AM 68.2°F20.1°C 97.2°F36.2°C - 12.0 mph NE19.3 kmh NE 15.0 mph24.1 kmh 30.07 in1018.3 mb 0.00 in0.0 mm 0.00 in0.0 mm 0.00 in0.0 mm
10:44 AM 68.0°F20.0°C 97.0°F36.1°C - 11.6 mph NE18.7 kmh NE 14.5 mph23.3 kmh 30.07 in1018.3 mb 0.00 in0.0 mm 0.00 in0.0 mm 0.00 in0.0 mm
10:39 AM 67.7°F19.8°C 96.5°F35.8°C - 11.4 mph NNE18.3 kmh NNE 14.3 mph23.0 kmh 30.07 in1018.3 mb 0.00 in0.0 mm 0.00 in0.0 mm 0.00 in0.0 mm
10:34 AM 67.7°F19.8°C 96.6°F35.9°C - 10.9 mph NE17.5 kmh NE 13.6 mph21.9 kmh 30.07 in1018.3 mb 0.00 in0.0 mm 0.00 in0.0 mm 0.00 in0.0 mm
10:29 AM 67.7°F19.8°C 96.5°F35.8°C - 10.0 mph NE16.1 kmh NE 12.5 mph20.1 kmh 30.07 in1018.3 mb 0.00 in0.0 mm 0.00 in0.0 mm 0.00 in0.0 mm
10:24 AM 67.3°F19.6°C 96.2°F35.7°C - 9.1 mph NNE14.6 kmh NNE 11.9 mph19.2 kmh 30.08 in1018.6 mb 0.00 in0.0 mm 0.00 in0.0 mm 0.00 in0.0 mm
10:19 AM 67.1°F19.5°C 95.9°F35.5°C - 12.2 mph NE19.6 kmh NE 16.3 mph26.2 kmh 30.08 in1018.6 mb 0.00 in0.0 mm 0.00 in0.0 mm 0.00 in0.0 mm
10:14 AM 67.0°F19.4°C 95.7°F35.4°C - 11.1 mph NE17.9 kmh NE 14.6 mph23.5 kmh 30.08 in1018.6 mb 0.00 in0.0 mm 0.00 in0.0 mm 0.00 in0.0 mm
10:09 AM 66.9°F19.4°C 95.6°F35.3°C - 11.5 mph NNE18.5 kmh NNE 15.3 mph24.6 kmh 30.08 in1018.6 mb 0.00 in0.0 mm 0.00 in0.0 mm 0.00 in0.0 mm
10:04 AM 66.7°F19.3°C 95.4°F35.2°C - 9.8 mph NNE15.8 kmh NNE 14.9 mph24.0 kmh 30.08 in1018.6 mb 0.00 in0.0 mm 0.00 in0.0 mm 0.00 in0.0 mm
09:59 AM 66.5°F19.2°C 95.3°F35.2°C - 9.8 mph NE15.8 kmh NE 12.9 mph20.8 kmh 30.08 in1018.6 mb 0.00 in0.0 mm 0.00 in0.0 mm 0.00 in0.0 mm
09:54 AM 66.5°F19.2°C 95.3°F35.2°C - 11.3 mph NE18.2 kmh NE 12.9 mph20.8 kmh 30.08 in1018.6 mb 0.00 in0.0 mm 0.00 in0.0 mm 0.00 in0.0 mm
09:49 AM 66.4°F19.1°C 95.0°F35.0°C - 10.0 mph NNE16.1 kmh NNE 12.2 mph19.6 kmh 30.08 in1018.6 mb 0.00 in0.0 mm 0.00 in0.0 mm 0.00 in0.0 mm
09:44 AM 66.5°F19.2°C 95.1°F35.1°C - 10.1 mph NNE16.3 kmh NNE 12.4 mph20.0 kmh 30.08 in1018.6 mb 0.00 in0.0 mm 0.00 in0.0 mm 0.00 in0.0 mm
09:39 AM 66.5°F19.2°C 95.3°F35.2°C - 8.1 mph NE13.0 kmh NE 10.4 mph16.7 kmh 30.08 in1018.6 mb 0.00 in0.0 mm 0.00 in0.0 mm 0.00 in0.0 mm
09:34 AM 66.5°F19.2°C 95.3°F35.2°C - 8.1 mph NE13.0 kmh NE 9.9 mph15.9 kmh 30.08 in1018.6 mb 0.00 in0.0 mm 0.00 in0.0 mm 0.00 in0.0 mm
09:29 AM 66.4°F19.1°C 95.2°F35.1°C - 8.7 mph NE14.0 kmh NE 10.5 mph16.9 kmh 30.08 in1018.6 mb 0.00 in0.0 mm 0.00 in0.0 mm 0.00 in0.0 mm
09:24 AM 66.4°F19.1°C 95.2°F35.1°C - 7.4 mph NNE11.9 kmh NNE 9.7 mph15.6 kmh 30.08 in1018.6 mb 0.00 in0.0 mm 0.00 in0.0 mm 0.00 in0.0 mm
09:19 AM 66.2°F19.0°C 94.8°F34.9°C - 7.9 mph NE12.7 kmh NE 10.0 mph16.1 kmh 30.08 in1018.6 mb 0.00 in0.0 mm 0.00 in0.0 mm 0.00 in0.0 mm
09:14 AM 66.2°F19.0°C 94.8°F34.9°C - 7.5 mph NE12.1 kmh NE 10.0 mph16.1 kmh 30.08 in1018.6 mb 0.00 in0.0 mm 0.00 in0.0 mm 0.00 in0.0 mm
09:09 AM 66.2°F19.0°C 94.8°F34.9°C - 8.8 mph NE14.2 kmh NE 11.2 mph18.0 kmh 30.08 in1018.6 mb 0.00 in0.0 mm 0.00 in0.0 mm 0.00 in0.0 mm
09:04 AM 65.9°F18.8°C 94.5°F34.7°C - 6.7 mph NNE10.8 kmh NNE 10.1 mph16.3 kmh 30.08 in1018.6 mb 0.00 in0.0 mm 0.00 in0.0 mm 0.00 in0.0 mm
08:59 AM 65.7°F18.7°C 94.2°F34.6°C - 9.5 mph NE15.3 kmh NE 16.8 mph27.0 kmh 30.08 in1018.6 mb 0.00 in0.0 mm 0.00 in0.0 mm 0.00 in0.0 mm
08:54 AM 65.5°F18.6°C 94.0°F34.4°C - 10.7 mph NE17.2 kmh NE 17.2 mph27.7 kmh 30.08 in1018.6 mb 0.00 in0.0 mm 0.00 in0.0 mm 0.00 in0.0 mm
08:49 AM 65.5°F18.6°C 94.1°F34.5°C - 11.8 mph NE19.0 kmh NE 22.4 mph36.0 kmh 30.08 in1018.6 mb 0.00 in0.0 mm 0.00 in0.0 mm 0.00 in0.0 mm
08:44 AM 65.7°F18.7°C 94.2°F34.6°C - 9.6 mph NE15.4 kmh NE 13.9 mph22.4 kmh 30.08 in1018.6 mb 0.00 in0.0 mm 0.00 in0.0 mm 0.00 in0.0 mm
08:39 AM 65.7°F18.7°C 94.4°F34.7°C - 7.9 mph NE12.7 kmh NE 10.9 mph17.5 kmh 30.09 in1019.0 mb 0.00 in0.0 mm 0.00 in0.0 mm 0.00 in0.0 mm
08:34 AM 65.7°F18.7°C 94.4°F34.7°C - 7.1 mph NE11.4 kmh NE 10.0 mph16.1 kmh 30.08 in1018.6 mb 0.00 in0.0 mm 0.00 in0.0 mm 0.00 in0.0 mm
08:29 AM 65.5°F18.6°C 94.1°F34.5°C - 7.7 mph NE12.4 kmh NE 10.1 mph16.3 kmh 30.08 in1018.6 mb 0.00 in0.0 mm 0.00 in0.0 mm 0.00 in0.0 mm
08:24 AM 65.4°F18.6°C 94.0°F34.4°C - 8.5 mph NE13.7 kmh NE 10.1 mph16.3 kmh 30.08 in1018.6 mb 0.00 in0.0 mm 0.00 in0.0 mm 0.00 in0.0 mm
08:19 AM 65.4°F18.6°C 94.0°F34.4°C - 8.0 mph ENE12.9 kmh ENE 10.2 mph16.4 kmh 30.08 in1018.6 mb 0.00 in0.0 mm 0.00 in0.0 mm 0.00 in0.0 mm
08:14 AM 65.5°F18.6°C 94.0°F34.4°C - 7.8 mph ENE12.6 kmh ENE 11.0 mph17.7 kmh 30.08 in1018.6 mb 0.00 in0.0 mm 0.00 in0.0 mm 0.00 in0.0 mm
08:09 AM 65.3°F18.5°C 93.9°F34.4°C - 7.8 mph ENE12.6 kmh ENE 10.9 mph17.5 kmh 30.08 in1018.6 mb 0.00 in0.0 mm 0.00 in0.0 mm 0.00 in0.0 mm
08:04 AM 65.2°F18.4°C 93.8°F34.3°C - 9.1 mph ENE14.6 kmh ENE 12.5 mph20.1 kmh 30.08 in1018.6 mb 0.00 in0.0 mm 0.00 in0.0 mm 0.00 in0.0 mm
07:59 AM 65.2°F18.4°C 93.8°F34.3°C - 8.3 mph ENE13.4 kmh ENE 10.8 mph17.4 kmh 30.08 in1018.6 mb 0.00 in0.0 mm 0.00 in0.0 mm 0.00 in0.0 mm
07:54 AM 65.2°F18.4°C 93.8°F34.3°C - 8.0 mph ENE12.9 kmh ENE 11.2 mph18.0 kmh 30.08 in1018.6 mb 0.00 in0.0 mm 0.00 in0.0 mm 0.00 in0.0 mm
07:49 AM 65.2°F18.4°C 93.8°F34.3°C - 6.9 mph ENE11.1 kmh ENE 9.6 mph15.4 kmh 30.09 in1019.0 mb 0.00 in0.0 mm 0.00 in0.0 mm 0.00 in0.0 mm
07:44 AM 65.1°F18.4°C 93.7°F34.3°C - 5.9 mph ENE9.5 kmh ENE 9.9 mph15.9 kmh 30.09 in1019.0 mb 0.00 in0.0 mm 0.00 in0.0 mm 0.00 in0.0 mm
07:39 AM 65.0°F18.3°C 93.6°F34.2°C - 6.5 mph E10.5 kmh E 9.2 mph14.8 kmh 30.09 in1019.0 mb 0.00 in0.0 mm 0.00 in0.0 mm 0.00 in0.0 mm
07:34 AM 64.9°F18.3°C 93.3°F34.1°C - 8.2 mph E13.2 kmh E 11.4 mph18.3 kmh 30.08 in1018.6 mb 0.00 in0.0 mm 0.00 in0.0 mm 0.00 in0.0 mm
07:29 AM 65.0°F18.3°C 93.4°F34.1°C - 8.6 mph ENE13.8 kmh ENE 16.2 mph26.1 kmh 30.08 in1018.6 mb 0.00 in0.0 mm 0.00 in0.0 mm 0.00 in0.0 mm
07:24 AM 64.9°F18.3°C 93.5°F34.2°C - 6.1 mph E9.8 kmh E 10.1 mph16.3 kmh 30.09 in1019.0 mb 0.00 in0.0 mm 0.00 in0.0 mm 0.00 in0.0 mm
07:19 AM 64.7°F18.2°C 93.1°F33.9°C - 6.8 mph ENE10.9 kmh ENE 9.7 mph15.6 kmh 30.09 in1019.0 mb 0.00 in0.0 mm 0.00 in0.0 mm 0.00 in0.0 mm
07:14 AM 64.7°F18.2°C 93.1°F33.9°C - 7.6 mph E12.2 kmh E 12.2 mph19.6 kmh 30.09 in1019.0 mb 0.00 in0.0 mm 0.00 in0.0 mm 0.00 in0.0 mm
07:09 AM 64.5°F18.1°C 93.0°F33.9°C - 8.8 mph E14.2 kmh E 12.8 mph20.6 kmh 30.09 in1019.0 mb 0.00 in0.0 mm 0.00 in0.0 mm 0.00 in0.0 mm
07:04 AM 64.5°F18.1°C 93.0°F33.9°C - 10.5 mph E16.9 kmh E 15.7 mph25.3 kmh 30.09 in1019.0 mb 0.00 in0.0 mm 0.00 in0.0 mm 0.00 in0.0 mm
06:59 AM 64.4°F18.0°C 92.8°F33.8°C - 10.1 mph E16.3 kmh E 18.4 mph29.6 kmh 30.09 in1019.0 mb 0.00 in0.0 mm 0.00 in0.0 mm 0.00 in0.0 mm
06:54 AM 64.4°F18.0°C 92.9°F33.8°C - 7.5 mph E12.1 kmh E 11.3 mph18.2 kmh 30.09 in1019.0 mb 0.00 in0.0 mm 0.00 in0.0 mm 0.00 in0.0 mm
06:49 AM 64.3°F17.9°C 92.7°F33.7°C - 6.6 mph E10.6 kmh E 9.3 mph15.0 kmh 30.09 in1019.0 mb 0.00 in0.0 mm 0.00 in0.0 mm 0.00 in0.0 mm
06:44 AM 64.2°F17.9°C 92.7°F33.7°C - 5.9 mph E9.5 kmh E 9.8 mph15.8 kmh 30.09 in1019.0 mb 0.00 in0.0 mm 0.00 in0.0 mm 0.00 in0.0 mm
06:39 AM 64.2°F17.9°C 92.7°F33.7°C - 7.7 mph E12.4 kmh E 12.1 mph19.5 kmh 30.10 in1019.3 mb 0.00 in0.0 mm 0.00 in0.0 mm 0.00 in0.0 mm
06:34 AM 64.2°F17.9°C 92.7°F33.7°C - 6.6 mph E10.6 kmh E 9.3 mph15.0 kmh 30.10 in1019.3 mb 0.00 in0.0 mm 0.00 in0.0 mm 0.00 in0.0 mm
06:29 AM 64.2°F17.9°C 92.5°F33.6°C - 8.5 mph E13.7 kmh E 12.4 mph20.0 kmh 30.10 in1019.3 mb 0.00 in0.0 mm 0.00 in0.0 mm 0.00 in0.0 mm
06:24 AM 64.1°F17.8°C 92.4°F33.6°C - 8.7 mph E14.0 kmh E 11.8 mph19.0 kmh 30.10 in1019.3 mb 0.00 in0.0 mm 0.00 in0.0 mm 0.00 in0.0 mm
06:19 AM 64.0°F17.8°C 92.3°F33.5°C - 7.3 mph E11.7 kmh E 11.0 mph17.7 kmh 30.10 in1019.3 mb 0.00 in0.0 mm 0.00 in0.0 mm 0.00 in0.0 mm
06:14 AM 64.2°F17.9°C 92.7°F33.7°C - 6.8 mph E10.9 kmh E 10.2 mph16.4 kmh 30.10 in1019.3 mb 0.00 in0.0 mm 0.00 in0.0 mm 0.00 in0.0 mm
06:09 AM 64.2°F17.9°C 92.5°F33.6°C - 7.2 mph E11.6 kmh E 9.5 mph15.3 kmh 30.10 in1019.3 mb 0.00 in0.0 mm 0.00 in0.0 mm 0.00 in0.0 mm
06:04 AM 64.0°F17.8°C 92.3°F33.5°C - 8.5 mph E13.7 kmh E 11.3 mph18.2 kmh 30.10 in1019.3 mb 0.00 in0.0 mm 0.00 in0.0 mm 0.00 in0.0 mm
05:59 AM 64.0°F17.8°C 92.3°F33.5°C - 8.9 mph E14.3 kmh E 13.0 mph20.9 kmh 30.10 in1019.3 mb 0.00 in0.0 mm 0.00 in0.0 mm 0.00 in0.0 mm
05:54 AM 64.0°F17.8°C 92.4°F33.6°C - 9.3 mph E15.0 kmh E 13.8 mph22.2 kmh 30.10 in1019.3 mb 0.00 in0.0 mm 0.00 in0.0 mm 0.00 in0.0 mm
05:49 AM 64.0°F17.8°C 92.3°F33.5°C - 8.1 mph E13.0 kmh E 11.2 mph18.0 kmh 30.10 in1019.3 mb 0.00 in0.0 mm 0.00 in0.0 mm 0.00 in0.0 mm
05:44 AM 63.9°F17.7°C 92.3°F33.5°C - 9.4 mph E15.1 kmh E 13.6 mph21.9 kmh 30.10 in1019.3 mb 0.00 in0.0 mm 0.00 in0.0 mm 0.00 in0.0 mm
05:39 AM 63.7°F17.6°C 92.1°F33.4°C - 10.8 mph E17.4 kmh E 15.2 mph24.5 kmh 30.10 in1019.3 mb 0.00 in0.0 mm 0.00 in0.0 mm 0.00 in0.0 mm
05:34 AM 63.7°F17.6°C 92.0°F33.3°C - 13.1 mph E21.1 kmh E 18.1 mph29.1 kmh 30.10 in1019.3 mb 0.00 in0.0 mm 0.00 in0.0 mm 0.00 in0.0 mm
05:29 AM 63.6°F17.6°C 92.0°F33.3°C - 11.0 mph E17.7 kmh E 15.5 mph24.9 kmh 30.10 in1019.3 mb 0.00 in0.0 mm 0.00 in0.0 mm 0.00 in0.0 mm
05:24 AM 63.5°F17.5°C 91.9°F33.3°C - 11.5 mph E18.5 kmh E 16.8 mph27.0 kmh 30.10 in1019.3 mb 0.00 in0.0 mm 0.00 in0.0 mm 0.00 in0.0 mm
05:19 AM 63.5°F17.5°C 91.8°F33.2°C - 10.9 mph E17.5 kmh E 16.2 mph26.1 kmh 30.10 in1019.3 mb 0.00 in0.0 mm 0.00 in0.0 mm 0.00 in0.0 mm
05:14 AM 63.3°F17.4°C 91.7°F33.2°C - 7.3 mph E11.7 kmh E 11.5 mph18.5 kmh 30.10 in1019.3 mb 0.00 in0.0 mm 0.00 in0.0 mm 0.00 in0.0 mm
05:09 AM 63.2°F17.3°C 91.5°F33.1°C - 10.7 mph E17.2 kmh E 14.7 mph23.7 kmh 30.10 in1019.3 mb 0.00 in0.0 mm 0.00 in0.0 mm 0.00 in0.0 mm
05:04 AM 63.2°F17.3°C 91.5°F33.1°C - 11.7 mph E18.8 kmh E 17.5 mph28.2 kmh 30.10 in1019.3 mb 0.00 in0.0 mm 0.00 in0.0 mm 0.00 in0.0 mm
04:59 AM 63.2°F17.3°C 91.5°F33.1°C - 10.8 mph E17.4 kmh E 15.3 mph24.6 kmh 30.10 in1019.3 mb 0.00 in0.0 mm 0.00 in0.0 mm 0.00 in0.0 mm
04:54 AM 63.2°F17.3°C 91.4°F33.0°C - 9.2 mph ENE14.8 kmh ENE 14.5 mph23.3 kmh 30.11 in1019.6 mb 0.00 in0.0 mm 0.00 in0.0 mm 0.00 in0.0 mm
04:49 AM 63.2°F17.3°C 91.5°F33.1°C - 7.5 mph ENE12.1 kmh ENE 13.0 mph20.9 kmh 30.11 in1019.6 mb 0.00 in0.0 mm 0.00 in0.0 mm 0.00 in0.0 mm
04:44 AM 63.3°F17.4°C 91.7°F33.2°C - 9.4 mph E15.1 kmh E 13.1 mph21.1 kmh 30.11 in1019.6 mb 0.00 in0.0 mm 0.00 in0.0 mm 0.00 in0.0 mm
04:39 AM 63.3°F17.4°C 91.7°F33.2°C - 7.2 mph E11.6 kmh E 10.5 mph16.9 kmh 30.11 in1019.6 mb 0.00 in0.0 mm 0.00 in0.0 mm 0.00 in0.0 mm
04:34 AM 63.5°F17.5°C 91.9°F33.3°C - 8.9 mph E14.3 kmh E 11.9 mph19.2 kmh 30.11 in1019.6 mb 0.00 in0.0 mm 0.00 in0.0 mm 0.00 in0.0 mm
04:29 AM 63.5°F17.5°C 91.8°F33.2°C - 10.8 mph E17.4 kmh E 18.6 mph29.9 kmh 30.11 in1019.6 mb 0.00 in0.0 mm 0.00 in0.0 mm 0.00 in0.0 mm
04:24 AM 63.5°F17.5°C 91.9°F33.3°C - 11.3 mph E18.2 kmh E 16.9 mph27.2 kmh 30.11 in1019.6 mb 0.00 in0.0 mm 0.00 in0.0 mm 0.00 in0.0 mm
04:19 AM 63.5°F17.5°C 91.8°F33.2°C - 11.5 mph E18.5 kmh E 16.9 mph27.2 kmh 30.11 in1019.6 mb 0.00 in0.0 mm 0.00 in0.0 mm 0.00 in0.0 mm
04:14 AM 63.5°F17.5°C 91.8°F33.2°C - 11.7 mph E18.8 kmh E 16.5 mph26.6 kmh 30.11 in1019.6 mb 0.00 in0.0 mm 0.00 in0.0 mm 0.00 in0.0 mm
04:09 AM 63.5°F17.5°C 91.8°F33.2°C - 8.5 mph ENE13.7 kmh ENE 13.1 mph21.1 kmh 30.11 in1019.6 mb 0.00 in0.0 mm 0.00 in0.0 mm 0.00 in0.0 mm
04:04 AM 63.6°F17.6°C 92.0°F33.3°C - 11.8 mph E19.0 kmh E 18.2 mph29.3 kmh 30.11 in1019.6 mb 0.00 in0.0 mm 0.00 in0.0 mm 0.00 in0.0 mm
03:59 AM 63.7°F17.6°C 92.1°F33.4°C - 11.7 mph ENE18.8 kmh ENE 18.5 mph29.8 kmh 30.11 in1019.6 mb 0.00 in0.0 mm 0.00 in0.0 mm 0.00 in0.0 mm
03:54 AM 63.7°F17.6°C 92.0°F33.3°C - 8.9 mph ENE14.3 kmh ENE 14.4 mph23.2 kmh 30.11 in1019.6 mb 0.00 in0.0 mm 0.00 in0.0 mm 0.00 in0.0 mm
03:49 AM 63.7°F17.6°C 92.1°F33.4°C - 8.6 mph ENE13.8 kmh ENE 13.3 mph21.4 kmh 30.12 in1020.0 mb 0.00 in0.0 mm 0.00 in0.0 mm 0.00 in0.0 mm
03:44 AM 63.7°F17.6°C 92.0°F33.3°C - 8.3 mph E13.4 kmh E 12.4 mph20.0 kmh 30.11 in1019.6 mb 0.00 in0.0 mm 0.00 in0.0 mm 0.00 in0.0 mm
03:39 AM 63.8°F17.7°C 92.2°F33.4°C - 10.1 mph ENE16.3 kmh ENE 15.7 mph25.3 kmh 30.12 in1020.0 mb 0.00 in0.0 mm 0.00 in0.0 mm 0.00 in0.0 mm
03:34 AM 63.8°F17.7°C 92.1°F33.4°C - 10.1 mph ENE16.3 kmh ENE 16.5 mph26.6 kmh 30.12 in1020.0 mb 0.00 in0.0 mm 0.00 in0.0 mm 0.00 in0.0 mm
03:29 AM 64.0°F17.8°C 92.4°F33.6°C - 8.2 mph ENE13.2 kmh ENE 15.0 mph24.1 kmh 30.12 in1020.0 mb 0.00 in0.0 mm 0.00 in0.0 mm 0.00 in0.0 mm
03:24 AM 64.2°F17.9°C 92.7°F33.7°C - 10.7 mph ENE17.2 kmh ENE 17.9 mph28.8 kmh 30.12 in1020.0 mb 0.00 in0.0 mm 0.00 in0.0 mm 0.00 in0.0 mm
03:19 AM 64.2°F17.9°C 92.7°F33.7°C - 10.3 mph ENE16.6 kmh ENE 15.6 mph25.1 kmh 30.12 in1020.0 mb 0.00 in0.0 mm 0.00 in0.0 mm 0.00 in0.0 mm
03:14 AM 64.2°F17.9°C 92.7°F33.7°C - 10.9 mph ENE17.5 kmh ENE 19.0 mph30.6 kmh 30.12 in1020.0 mb 0.00 in0.0 mm 0.00 in0.0 mm 0.00 in0.0 mm
03:09 AM 64.4°F18.0°C 92.8°F33.8°C - 11.6 mph ENE18.7 kmh ENE 18.4 mph29.6 kmh 30.12 in1020.0 mb 0.00 in0.0 mm 0.00 in0.0 mm 0.00 in0.0 mm
03:04 AM 64.4°F18.0°C 92.8°F33.8°C - 9.8 mph E15.8 kmh E 19.4 mph31.2 kmh 30.12 in1020.0 mb 0.00 in0.0 mm 0.00 in0.0 mm 0.00 in0.0 mm
02:59 AM 64.5°F18.1°C 93.0°F33.9°C - 10.9 mph E17.5 kmh E 18.5 mph29.8 kmh 30.12 in1020.0 mb 0.00 in0.0 mm 0.00 in0.0 mm 0.00 in0.0 mm
02:54 AM 64.5°F18.1°C 92.9°F33.8°C - 8.9 mph ENE14.3 kmh ENE 15.5 mph24.9 kmh 30.13 in1020.3 mb 0.00 in0.0 mm 0.00 in0.0 mm 0.00 in0.0 mm
02:49 AM 64.7°F18.2°C 93.1°F33.9°C - 10.4 mph ENE16.7 kmh ENE 16.1 mph25.9 kmh 30.13 in1020.3 mb 0.00 in0.0 mm 0.00 in0.0 mm 0.00 in0.0 mm
02:44 AM 64.7°F18.2°C 93.1°F33.9°C - 9.4 mph ENE15.1 kmh ENE 20.9 mph33.6 kmh 30.12 in1020.0 mb 0.00 in0.0 mm 0.00 in0.0 mm 0.00 in0.0 mm
02:39 AM 64.7°F18.2°C 93.1°F33.9°C - 11.9 mph ENE19.2 kmh ENE 22.2 mph35.7 kmh 30.12 in1020.0 mb 0.00 in0.0 mm 0.00 in0.0 mm 0.00 in0.0 mm
02:34 AM 64.7°F18.2°C 93.2°F34.0°C - 14.2 mph NE22.9 kmh NE 20.9 mph33.6 kmh 30.12 in1020.0 mb 0.00 in0.0 mm 0.00 in0.0 mm 0.00 in0.0 mm
02:29 AM 64.7°F18.2°C 93.2°F34.0°C - 13.9 mph ENE22.4 kmh ENE 23.6 mph38.0 kmh 30.12 in1020.0 mb 0.00 in0.0 mm 0.00 in0.0 mm 0.00 in0.0 mm
02:24 AM 64.7°F18.2°C 93.1°F33.9°C - 10.9 mph ENE17.5 kmh ENE 17.0 mph27.4 kmh 30.12 in1020.0 mb 0.00 in0.0 mm 0.00 in0.0 mm 0.00 in0.0 mm
02:19 AM 64.7°F18.2°C 93.1°F33.9°C - 12.7 mph ENE20.4 kmh ENE 20.1 mph32.3 kmh 30.12 in1020.0 mb 0.00 in0.0 mm 0.00 in0.0 mm 0.00 in0.0 mm
02:14 AM 64.7°F18.2°C 93.1°F33.9°C - 9.4 mph ENE15.1 kmh ENE 17.4 mph28.0 kmh 30.13 in1020.3 mb 0.00 in0.0 mm 0.00 in0.0 mm 0.00 in0.0 mm
02:09 AM 64.7°F18.2°C 93.1°F33.9°C - 10.5 mph ENE16.9 kmh ENE 20.6 mph33.2 kmh 30.13 in1020.3 mb 0.00 in0.0 mm 0.00 in0.0 mm 0.00 in0.0 mm
02:04 AM 64.7°F18.2°C 93.1°F33.9°C - 6.8 mph ENE10.9 kmh ENE 15.6 mph25.1 kmh 30.13 in1020.3 mb 0.00 in0.0 mm 0.00 in0.0 mm 0.00 in0.0 mm
01:59 AM 64.8°F18.2°C 93.2°F34.0°C - 8.3 mph E13.4 kmh E 16.5 mph26.6 kmh 30.13 in1020.3 mb 0.00 in0.0 mm 0.00 in0.0 mm 0.00 in0.0 mm
01:54 AM 64.7°F18.2°C 93.2°F34.0°C - 7.9 mph E12.7 kmh E 15.8 mph25.4 kmh 30.13 in1020.3 mb 0.00 in0.0 mm 0.00 in0.0 mm 0.00 in0.0 mm
01:49 AM 64.8°F18.2°C 93.2°F34.0°C - 7.3 mph ENE11.7 kmh ENE 12.1 mph19.5 kmh 30.13 in1020.3 mb 0.00 in0.0 mm 0.00 in0.0 mm 0.00 in0.0 mm
01:44 AM 64.9°F18.3°C 93.5°F34.2°C - 8.5 mph ENE13.7 kmh ENE 14.7 mph23.7 kmh 30.13 in1020.3 mb 0.00 in0.0 mm 0.00 in0.0 mm 0.00 in0.0 mm
01:39 AM 64.9°F18.3°C 93.5°F34.2°C - 13.8 mph ENE22.2 kmh ENE 22.3 mph35.9 kmh 30.13 in1020.3 mb 0.00 in0.0 mm 0.00 in0.0 mm 0.00 in0.0 mm
01:34 AM 64.8°F18.2°C 93.3°F34.1°C - 12.6 mph E20.3 kmh E 23.1 mph37.2 kmh 30.14 in1020.7 mb 0.00 in0.0 mm 0.00 in0.0 mm 0.00 in0.0 mm
01:29 AM 64.9°F18.3°C 93.3°F34.1°C - 8.5 mph ENE13.7 kmh ENE 18.7 mph30.1 kmh 30.14 in1020.7 mb 0.00 in0.0 mm 0.00 in0.0 mm 0.00 in0.0 mm
01:24 AM 64.8°F18.2°C 93.2°F34.0°C - 11.3 mph E18.2 kmh E 21.6 mph34.8 kmh 30.14 in1020.7 mb 0.00 in0.0 mm 0.00 in0.0 mm 0.00 in0.0 mm
01:19 AM 64.8°F18.2°C 93.2°F34.0°C - 7.3 mph ENE11.7 kmh ENE 13.3 mph21.4 kmh 30.14 in1020.7 mb 0.00 in0.0 mm 0.00 in0.0 mm 0.00 in0.0 mm
01:14 AM 64.9°F18.3°C 93.3°F34.1°C - 7.6 mph E12.2 kmh E 17.4 mph28.0 kmh 30.14 in1020.7 mb 0.00 in0.0 mm 0.00 in0.0 mm 0.00 in0.0 mm
01:09 AM 64.9°F18.3°C 93.3°F34.1°C - 9.5 mph ENE15.3 kmh ENE 16.8 mph27.0 kmh 30.14 in1020.7 mb 0.00 in0.0 mm 0.00 in0.0 mm 0.00 in0.0 mm
01:04 AM 65.0°F18.3°C 93.6°F34.2°C - 11.1 mph E17.9 kmh E 16.5 mph26.6 kmh 30.14 in1020.7 mb 0.00 in0.0 mm 0.00 in0.0 mm 0.00 in0.0 mm
12:59 AM 65.0°F18.3°C 93.6°F34.2°C - 8.6 mph E13.8 kmh E 16.3 mph26.2 kmh 30.14 in1020.7 mb 0.00 in0.0 mm 0.00 in0.0 mm 0.00 in0.0 mm
12:54 AM 65.0°F18.3°C 93.6°F34.2°C - 10.1 mph ENE16.3 kmh ENE 15.9 mph25.6 kmh 30.14 in1020.7 mb 0.00 in0.0 mm 0.00 in0.0 mm 0.00 in0.0 mm
12:49 AM 65.0°F18.3°C 93.6°F34.2°C - 12.1 mph ENE19.5 kmh ENE 19.2 mph30.9 kmh 30.14 in1020.7 mb 0.00 in0.0 mm 0.00 in0.0 mm 0.00 in0.0 mm
12:44 AM 65.0°F18.3°C 93.4°F34.1°C - 9.1 mph ENE14.6 kmh ENE 16.1 mph25.9 kmh 30.14 in1020.7 mb 0.00 in0.0 mm 0.00 in0.0 mm 0.00 in0.0 mm
12:39 AM 65.1°F18.4°C 93.6°F34.2°C - 9.7 mph ENE15.6 kmh ENE 16.0 mph25.7 kmh 30.14 in1020.7 mb 0.00 in0.0 mm 0.00 in0.0 mm 0.00 in0.0 mm
12:34 AM 65.2°F18.4°C 93.7°F34.3°C - 6.9 mph ENE11.1 kmh ENE 11.8 mph19.0 kmh 30.14 in1020.7 mb 0.00 in0.0 mm 0.00 in0.0 mm 0.00 in0.0 mm
12:29 AM 65.2°F18.4°C 93.7°F34.3°C - 8.9 mph ENE14.3 kmh ENE 16.1 mph25.9 kmh 30.15 in1021.0 mb 0.00 in0.0 mm 0.00 in0.0 mm 0.00 in0.0 mm
12:24 AM 65.2°F18.4°C 93.7°F34.3°C - 7.6 mph ENE12.2 kmh ENE 13.5 mph21.7 kmh 30.15 in1021.0 mb 0.00 in0.0 mm 0.00 in0.0 mm 0.00 in0.0 mm
12:19 AM 65.3°F18.5°C 93.9°F34.4°C - 9.6 mph ENE15.4 kmh ENE 15.1 mph24.3 kmh 30.15 in1021.0 mb 0.00 in0.0 mm 0.00 in0.0 mm 0.00 in0.0 mm
12:14 AM 65.2°F18.4°C 93.7°F34.3°C - 10.4 mph ENE16.7 kmh ENE 16.9 mph27.2 kmh 30.15 in1021.0 mb 0.00 in0.0 mm 0.00 in0.0 mm 0.00 in0.0 mm
12:09 AM 65.4°F18.6°C 94.0°F34.4°C - 8.9 mph ENE14.3 kmh ENE 12.2 mph19.6 kmh 30.15 in1021.0 mb 0.00 in0.0 mm 0.00 in0.0 mm 0.00 in0.0 mm
12:04 AM 65.5°F18.6°C 94.0°F34.4°C - 8.7 mph ENE14.0 kmh ENE 13.0 mph20.9 kmh 30.15 in1021.0 mb 0.00 in0.0 mm 0.00 in0.0 mm 0.00 in0.0 mm